Siyay — CFN6563 — position and weather

sailwx.info

Track history (hours):
 
Tides and Currents Weather Stations Pressure Air Temp Water Temp Dewpoint Dewpoint Depression Visibility Wind Speed Wind Dir Waves Ship Positions

Siyay

Last reported at 2018-Jan-28 01:00 UTC. Time now 2018-Feb-18 20:22 UTC.
Position N 49°11' W 123°11'.
Warning: this ship's position is 21 days out of date.

Length 28 m; draft 0.1 m.

Type: SAR. MMSI: 316001749.

Date/timePositionNaut miles runAvg speedWind from/ knotsBaromVisibWave heightAir tempDewpointWater temp
2018-Jan-28 01:00N 49°11' W 123°11'0 0.0
2018-Jan-27 23:58N 49°11' W 123°11'0 0.0
2018-Jan-27 06:03N 49°11' W 123°11'0 0.2
2018-Jan-27 05:54N 49°11' W 123°11'0 0.1
2018-Jan-27 05:24N 49°11' W 123°11'0 0.0
2018-Jan-27 04:58N 49°11' W 123°11'0 0.0
2018-Jan-27 04:21N 49°11' W 123°11'0 0.0
2018-Jan-27 03:59N 49°11' W 123°11'0 0.0
2018-Jan-27 03:30N 49°11' W 123°11'0 0.0
2018-Jan-27 02:59N 49°11' W 123°11'2 0.3
2018-Jan-26 19:38N 49°12' W 123°15'211.5
2018-Jan-26 19:26N 49°11' W 123°11'2 4.6
2018-Jan-26 18:57N 49°12' W 123°08'2 4.0
2018-Jan-26 18:30N 49°12' W 123°05'1 2.5
2018-Jan-26 18:00N 49°12' W 123°07'510.4
2018-Jan-26 17:31N 49°12' W 123°15'3 0.2
2018-Jan-26 02:41N 49°11' W 123°11'0 0.2
2018-Jan-26 02:30N 49°11' W 123°11'0 0.0
2018-Jan-26 02:00N 49°11' W 123°11'816.6
2018-Jan-26 01:31N 49°13' W 123°23'1015.9
2018-Jan-26 00:51N 49°15' W 123°39'0 0.5
2018-Jan-26 00:24N 49°15' W 123°39'0 0.2
2018-Jan-25 23:45N 49°15' W 123°39'0 0.2
2018-Jan-25 23:00N 49°15' W 123°40'0 0.2
2018-Jan-25 22:29N 49°15' W 123°40'0 0.1
2018-Jan-25 21:46N 49°15' W 123°40'0 0.1
2018-Jan-25 21:28N 49°15' W 123°40'0 0.1
2018-Jan-25 20:59N 49°16' W 123°40'0 0.3
2018-Jan-25 20:29N 49°16' W 123°40'0 0.6
2018-Jan-25 20:00N 49°15' W 123°40'0 0.7
2018-Jan-25 19:28N 49°15' W 123°40'1123.0
2018-Jan-25 19:01N 49°13' W 123°24'917.3
2018-Jan-25 18:31N 49°11' W 123°11'611.3
2018-Jan-25 18:00N 49°12' W 123°20'1326.0
2018-Jan-25 17:30N 49°16' W 123°39'1631.6
2018-Jan-25 17:00N 49°11' W 123°15'2 5.0
2018-Jan-25 16:30N 49°11' W 123°11'0 0.0
2018-Jan-25 16:00N 49°11' W 123°11'0 0.0
2018-Jan-24 14:29N 49°11' W 123°11'0 0.1
2018-Jan-24 13:47N 49°11' W 123°11'0 0.0
2018-Jan-24 13:18N 49°11' W 123°11'0 0.0
2018-Jan-24 13:00N 49°11' W 123°11'0 0.0
2018-Jan-24 12:21N 49°11' W 123°11'0 0.0
2018-Jan-24 11:58N 49°11' W 123°11'0 0.0
2018-Jan-24 11:20N 49°11' W 123°11'0 0.0
2018-Jan-24 10:53N 49°11' W 123°11'0 0.0
2018-Jan-24 10:28N 49°11' W 123°11'0 0.0
2018-Jan-24 09:53N 49°11' W 123°11'0 0.0
2018-Jan-24 09:24N 49°11' W 123°11'0 0.0
2018-Jan-24 08:58N 49°11' W 123°11'0 0.0
2018-Jan-24 08:29N 49°11' W 123°11'0 0.0
2018-Jan-24 08:00N 49°11' W 123°11'0 0.0
2018-Jan-24 05:52N 49°11' W 123°11'0 0.0
2018-Jan-24 05:21N 49°11' W 123°11'0 0.0
2018-Jan-24 04:45N 49°11' W 123°11'0 0.0
2018-Jan-24 04:22N 49°11' W 123°11'0 0.0
2018-Jan-24 03:58N 49°11' W 123°11'0 0.0
2018-Jan-24 03:27N 49°11' W 123°11'0 0.0
2018-Jan-24 03:00N 49°11' W 123°11'0 0.0
2018-Jan-24 02:28N 49°11' W 123°11'0 0.0
2018-Jan-24 01:54N 49°11' W 123°11'0 0.0
2018-Jan-24 01:29N 49°11' W 123°11'0 0.0
2018-Jan-24 00:50N 49°11' W 123°11'0 0.0
2018-Jan-24 00:29N 49°11' W 123°11'0 0.0
2018-Jan-23 23:34N 49°11' W 123°11'0 0.1
2018-Jan-23 23:28N 49°11' W 123°11'0 0.3
2018-Jan-23 22:50N 49°11' W 123°11'824.2
2018-Jan-23 22:31N 49°17' W 123°18'1120.9
2018-Jan-23 22:00N 49°28' W 123°23'1 1.0
2018-Jan-23 21:23N 49°28' W 123°23'0 0.0
2018-Jan-23 20:55N 49°28' W 123°23'0 0.0
2018-Jan-23 20:29N 49°28' W 123°23'0 0.0
2018-Jan-23 19:56N 49°28' W 123°23'0 0.0
2018-Jan-23 19:29N 49°28' W 123°23'613.4
2018-Jan-23 19:00N 49°23' W 123°18'1325.3
2018-Jan-23 18:31N 49°11' W 123°11'0 0.5
2018-Jan-23 18:00N 49°11' W 123°11'0 0.0
2018-Jan-23 17:30N 49°11' W 123°11'0 0.0
2018-Jan-23 17:00N 49°11' W 123°11'0 0.0
2018-Jan-23 16:28N 49°11' W 123°11'0 0.0
2018-Jan-23 15:57N 49°11' W 123°11'0 0.0
2018-Jan-23 15:29N 49°11' W 123°11'0 0.0
2018-Jan-23 15:00N 49°11' W 123°11'0 0.0
2018-Jan-23 14:29N 49°11' W 123°11'0 0.0
2018-Jan-23 14:00N 49°11' W 123°11'0 0.0
2018-Jan-23 13:30N 49°11' W 123°11'0 0.0
2018-Jan-23 13:00N 49°11' W 123°11'0 0.0
2018-Jan-23 12:25N 49°11' W 123°11'0 0.0
2018-Jan-23 11:56N 49°11' W 123°11'0 0.0
2018-Jan-23 11:30N 49°11' W 123°11'0 0.0
2018-Jan-23 10:58N 49°11' W 123°11'0 0.0
2018-Jan-23 10:28N 49°11' W 123°11'0 0.0
2018-Jan-23 10:00N 49°11' W 123°11'0 0.0
2018-Jan-23 09:30N 49°11' W 123°11'0 0.0
2018-Jan-23 09:00N 49°11' W 123°11'0 0.0
2018-Jan-23 08:30N 49°11' W 123°11'0 0.0
2018-Jan-23 08:00N 49°11' W 123°11'0 0.0
2018-Jan-23 07:30N 49°11' W 123°11'0 0.0
2018-Jan-23 07:00N 49°11' W 123°11'0 0.0
2018-Jan-23 06:30N 49°11' W 123°11'0 0.0
2018-Jan-23 05:59N 49°11' W 123°11'0 0.0
2018-Jan-23 05:29N 49°11' W 123°11'0 0.0
2018-Jan-23 05:00N 49°11' W 123°11'0 0.0
2018-Jan-23 04:28N 49°11' W 123°11'0 0.0
2018-Jan-23 04:00N 49°11' W 123°11'0 0.0
2018-Jan-23 03:30N 49°11' W 123°11'0 0.0
2018-Jan-23 02:59N 49°11' W 123°11'0 0.0
2018-Jan-23 02:30N 49°11' W 123°11'0 0.0
2018-Jan-23 01:58N 49°11' W 123°11'715.2
2018-Jan-23 01:29N 49°06' W 123°19'1121.4
2018-Jan-23 01:00N 49°12' W 123°32'6 7.3
2018-Jan-23 00:09N 49°15' W 123°40'0 0.3
2018-Jan-23 00:00N 49°15' W 123°40'0 0.2
2018-Jan-22 23:29N 49°15' W 123°40'0 0.2
2018-Jan-22 22:57N 49°15' W 123°40'0 0.2
2018-Jan-22 22:31N 49°15' W 123°40'0 0.1
2018-Jan-22 21:50N 49°15' W 123°40'0 0.1
2018-Jan-22 21:30N 49°15' W 123°40'0 0.1
2018-Jan-22 19:14N 49°15' W 123°40'0 0.2
2018-Jan-22 18:58N 49°15' W 123°40'5 9.5
2018-Jan-22 18:28N 49°12' W 123°34'1224.7
2018-Jan-22 17:59N 49°06' W 123°19'1 3.1
2018-Jan-22 17:30N 49°07' W 123°18'6 9.5
2018-Jan-22 16:52N 49°11' W 123°11'0 0.0
2018-Jan-22 16:30N 49°11' W 123°11'0 0.0
2018-Jan-22 14:06N 49°11' W 123°11'0 0.2
2018-Jan-22 13:53N 49°11' W 123°11'0 0.0
2018-Jan-22 13:12N 49°11' W 123°11'0 0.0
2018-Jan-22 12:46N 49°11' W 123°11'0 0.1
2018-Jan-22 12:25N 49°11' W 123°11'0 0.0
2018-Jan-22 11:56N 49°11' W 123°11'0 0.1
2018-Jan-22 11:26N 49°11' W 123°11'0 0.1
2018-Jan-22 10:58N 49°11' W 123°11'0 0.0
2018-Jan-22 10:30N 49°11' W 123°11'0 0.0
2018-Jan-22 09:43N 49°11' W 123°11'0 0.0
2018-Jan-22 09:30N 49°11' W 123°11'0 0.0
2018-Jan-22 09:00N 49°11' W 123°11'0 0.1
2018-Jan-22 08:26N 49°11' W 123°11'0 0.1
2018-Jan-22 07:55N 49°11' W 123°11'0 0.0
2018-Jan-22 07:25N 49°11' W 123°11'0 0.0
2018-Jan-22 06:59N 49°11' W 123°11'0 0.0
2018-Jan-22 06:09N 49°11' W 123°11'0 0.2
2018-Jan-22 05:53N 49°11' W 123°11'0 0.1
2018-Jan-22 05:27N 49°11' W 123°11'0 0.0
2018-Jan-22 05:00N 49°11' W 123°11'0 0.0
2018-Jan-22 04:29N 49°11' W 123°11'0 0.0
2018-Jan-22 03:56N 49°11' W 123°11'0 0.0
2018-Jan-22 03:04N 49°11' W 123°11'0 0.1
2018-Jan-22 02:41N 49°11' W 123°11'0 0.1
2018-Jan-22 02:18N 49°11' W 123°11'0 0.0
2018-Jan-22 01:42N 49°11' W 123°11'0 0.2
2018-Jan-22 01:30N 49°11' W 123°11'0 0.0
2018-Jan-22 00:57N 49°11' W 123°11'0 0.0
2018-Jan-22 00:17N 49°11' W 123°11'0 0.0
2018-Jan-21 23:58N 49°11' W 123°11'0 0.0
2018-Jan-21 23:23N 49°11' W 123°11'0 0.0
2018-Jan-21 22:19N 49°11' W 123°11'0 0.1
2018-Jan-21 22:00N 49°11' W 123°11'0 0.1
2018-Jan-21 21:27N 49°11' W 123°11'0 0.0
2018-Jan-21 20:26N 49°11' W 123°11'818.6
2018-Jan-21 20:00N 49°18' W 123°15'612.0
2018-Jan-21 19:31N 49°17' W 123°06'815.0
2018-Jan-21 19:00N 49°15' W 123°17'610.5
2018-Jan-21 18:25N 49°11' W 123°11'0 0.0
2018-Jan-21 17:57N 49°11' W 123°11'0 0.0
2018-Jan-21 17:28N 49°11' W 123°11'0 0.1
2018-Jan-21 16:59N 49°11' W 123°11'0 0.0
2018-Jan-21 16:30N 49°11' W 123°11'0 0.0
2018-Jan-21 16:00N 49°11' W 123°11'0 0.1
2018-Jan-21 15:30N 49°11' W 123°11'0 0.0
2018-Jan-21 15:00N 49°11' W 123°11'0 0.0
2018-Jan-21 14:30N 49°11' W 123°11'0 0.0
2018-Jan-21 14:00N 49°11' W 123°11'0 0.0
2018-Jan-21 13:30N 49°11' W 123°11'0 0.0
2018-Jan-21 13:00N 49°11' W 123°11'0 0.0
2018-Jan-21 12:30N 49°11' W 123°11'0 0.0
2018-Jan-21 12:00N 49°11' W 123°11'0 0.1
2018-Jan-21 11:30N 49°11' W 123°11'0 0.0
2018-Jan-21 10:59N 49°11' W 123°11'0 0.1
2018-Jan-21 10:30N 49°11' W 123°11'0 0.0
2018-Jan-21 10:00N 49°11' W 123°11'0 0.1
2018-Jan-21 09:30N 49°11' W 123°11'0 0.1
2018-Jan-21 08:59N 49°11' W 123°11'0 0.1
2018-Jan-21 08:30N 49°11' W 123°11'0 0.0
2018-Jan-21 08:00N 49°11' W 123°11'0 0.1
2018-Jan-21 07:30N 49°11' W 123°11'0 0.0
2018-Jan-21 07:00N 49°11' W 123°11'0 0.1
2018-Jan-21 06:30N 49°11' W 123°11'0 0.1
2018-Jan-21 06:00N 49°11' W 123°11'0 0.0
2018-Jan-21 05:28N 49°11' W 123°11'0 0.0
2018-Jan-21 05:00N 49°11' W 123°11'0 0.0
2018-Jan-21 04:30N 49°11' W 123°11'0 0.0
2018-Jan-21 03:59N 49°11' W 123°11'0 0.0
2018-Jan-21 03:30N 49°11' W 123°11'0 0.0
2018-Jan-21 03:00N 49°11' W 123°11'0 0.0
2018-Jan-21 02:30N 49°11' W 123°11'0 0.0
2018-Jan-21 02:00N 49°11' W 123°11'0 0.1
2018-Jan-21 01:30N 49°11' W 123°11'0 0.0
2018-Jan-21 01:00N 49°11' W 123°11'0 0.1
2018-Jan-21 00:30N 49°11' W 123°11'0 0.0
2018-Jan-21 00:00N 49°11' W 123°11'0 0.0
2018-Jan-20 23:30N 49°11' W 123°11'0 0.1
2018-Jan-20 23:00N 49°11' W 123°11'0 0.1
2018-Jan-20 22:30N 49°11' W 123°11'0 0.0
2018-Jan-20 22:00N 49°11' W 123°11'0 0.0
2018-Jan-20 21:30N 49°11' W 123°11'0 0.0
2018-Jan-20 21:00N 49°11' W 123°11'0 0.1
2018-Jan-20 20:30N 49°11' W 123°11'0 0.1
2018-Jan-20 20:00N 49°11' W 123°11'0 0.1
2018-Jan-20 19:30N 49°11' W 123°11'0 0.1
2018-Jan-20 19:00N 49°11' W 123°11'0 0.0
2018-Jan-20 18:30N 49°11' W 123°11'0 0.1
2018-Jan-20 17:59N 49°11' W 123°11'1 2.1
2018-Jan-20 17:30N 49°11' W 123°13'1 2.1
2018-Jan-20 17:00N 49°11' W 123°11'0 0.0
2018-Jan-20 14:42N 49°11' W 123°11'0 0.2
2018-Jan-20 14:30N 49°11' W 123°11'0 0.2
2018-Jan-20 14:00N 49°11' W 123°11'0 0.0
2018-Jan-20 13:30N 49°11' W 123°11'0 0.0
2018-Jan-20 13:00N 49°11' W 123°11'0 0.0
2018-Jan-20 12:30N 49°11' W 123°11'0 0.0
2018-Jan-20 12:00N 49°11' W 123°11'0 0.0
2018-Jan-20 11:30N 49°11' W 123°11'0 0.0
2018-Jan-20 10:59N 49°11' W 123°11'0 0.0
2018-Jan-20 10:28N 49°11' W 123°11'0 0.0
2018-Jan-20 09:59N 49°11' W 123°11'0 0.0
2018-Jan-20 09:25N 49°11' W 123°11'0 0.0
2018-Jan-20 09:00N 49°11' W 123°11'0 0.0
2018-Jan-20 08:30N 49°11' W 123°11'0 0.0
2018-Jan-20 08:00N 49°11' W 123°11'0 0.0
2018-Jan-20 07:30N 49°11' W 123°11'0 0.0
2018-Jan-20 07:00N 49°11' W 123°11'0 0.0
2018-Jan-20 06:29N 49°11' W 123°11'0 0.0
2018-Jan-20 06:00N 49°11' W 123°11'0 0.0
2018-Jan-20 05:30N 49°11' W 123°11'0 0.0
2018-Jan-20 05:00N 49°11' W 123°11'0 0.0
2018-Jan-20 04:27N 49°11' W 123°11'0 0.0
2018-Jan-20 03:57N 49°11' W 123°11'0 0.0
2018-Jan-20 03:30N 49°11' W 123°11'0 0.0
2018-Jan-20 03:00N 49°11' W 123°11'0 0.0
2018-Jan-20 02:29N 49°11' W 123°11'0 0.0
2018-Jan-20 01:59N 49°11' W 123°11'0 0.0
2018-Jan-20 01:30N 49°11' W 123°11'0 0.0
2018-Jan-20 01:00N 49°11' W 123°11'0 0.0
2018-Jan-20 00:31N 49°11' W 123°11'0 0.0
2018-Jan-20 00:01N 49°11' W 123°11'612.1
2018-Jan-19 23:29N 49°09' W 123°02'714.8
2018-Jan-19 23:00N 49°08' W 123°12'3 6.7
2018-Jan-19 22:29N 49°11' W 123°11'0 0.0
2018-Jan-19 21:58N 49°11' W 123°11'0 0.1
2018-Jan-19 21:30N 49°11' W 123°11'0 0.0
2018-Jan-19 20:58N 49°11' W 123°11'0 0.1
2018-Jan-19 20:29N 49°11' W 123°11'0 0.1
2018-Jan-19 19:58N 49°11' W 123°11'0 0.1
2018-Jan-19 19:29N 49°11' W 123°11'0 0.0
2018-Jan-19 18:56N 49°11' W 123°11'0 0.0
2018-Jan-19 18:30N 49°11' W 123°11'0 0.0
2018-Jan-19 17:56N 49°11' W 123°11'1 1.3
2018-Jan-19 17:28N 49°11' W 123°12'0 1.0
2018-Jan-19 17:00N 49°11' W 123°11'0 0.3
2018-Jan-19 16:29N 49°11' W 123°11'0 0.0
2018-Jan-19 15:57N 49°11' W 123°11'0 0.0
2018-Jan-19 15:30N 49°11' W 123°11'0 0.0
2018-Jan-19 14:56N 49°11' W 123°11'0 0.0
2018-Jan-19 14:29N 49°11' W 123°11'0 0.0
2018-Jan-19 13:59N 49°11' W 123°11'0 0.0
2018-Jan-19 13:28N 49°11' W 123°11'0 0.0
2018-Jan-19 12:56N 49°11' W 123°11'0 0.0
2018-Jan-19 12:30N 49°11' W 123°11'0 0.0
2018-Jan-19 11:59N 49°11' W 123°11'0 0.0
2018-Jan-19 11:25N 49°11' W 123°11'0 0.0
2018-Jan-19 10:56N 49°11' W 123°11'0 0.0
2018-Jan-19 10:29N 49°11' W 123°11'0 0.0
2018-Jan-19 09:56N 49°11' W 123°11'0 0.0
2018-Jan-19 09:27N 49°11' W 123°11'0 0.0
2018-Jan-19 08:59N 49°11' W 123°11'0 0.0
2018-Jan-19 08:11N 49°11' W 123°11'0 0.0
2018-Jan-19 07:36N 49°11' W 123°11'0 0.0
2018-Jan-19 07:27N 49°11' W 123°11'0 0.0
2018-Jan-19 06:58N 49°11' W 123°11'0 0.0
2018-Jan-19 06:30N 49°11' W 123°11'0 0.0
2018-Jan-19 05:12N 49°11' W 123°11'0 0.0
2018-Jan-19 04:53N 49°11' W 123°11'0 0.0
2018-Jan-19 04:26N 49°11' W 123°11'0 0.0
2018-Jan-19 03:57N 49°11' W 123°11'0 0.0
2018-Jan-19 03:30N 49°11' W 123°11'0 0.0
2018-Jan-19 02:58N 49°11' W 123°11'511.2
2018-Jan-19 02:30N 49°14' W 123°17'714.4
2018-Jan-19 02:00N 49°17' W 123°07'0 0.0
2018-Jan-19 01:30N 49°17' W 123°07'0 0.3
2018-Jan-19 01:00N 49°18' W 123°07'713.6
2018-Jan-19 00:29N 49°11' W 123°11'0 0.0
2018-Jan-18 23:59N 49°11' W 123°11'0 0.0
2018-Jan-18 23:30N 49°11' W 123°11'815.6
2018-Jan-18 23:00N 49°18' W 123°16'1121.0
2018-Jan-18 22:29N 49°28' W 123°23'0 0.1
2018-Jan-18 20:27N 49°28' W 123°23'0 0.0
2018-Jan-18 19:56N 49°28' W 123°23'0 0.0
2018-Jan-18 19:29N 49°28' W 123°23'0 0.1
2018-Jan-18 18:49N 49°28' W 123°23'620.0
2018-Jan-18 18:31N 49°23' W 123°18'1326.2
2018-Jan-18 18:00N 49°11' W 123°11'0 0.0
2018-Jan-18 17:30N 49°11' W 123°11'0 0.0
2018-Jan-18 17:00N 49°11' W 123°11'0 0.0
2018-Jan-18 16:29N 49°11' W 123°11'0 0.0
2018-Jan-18 16:00N 49°11' W 123°11'0 0.0
2018-Jan-18 15:30N 49°11' W 123°11'0 0.0
2018-Jan-18 14:58N 49°11' W 123°11'0 0.0
2018-Jan-18 14:30N 49°11' W 123°11'0 0.0
2018-Jan-18 14:00N 49°11' W 123°11'0 0.0
2018-Jan-18 13:30N 49°11' W 123°11'0 0.0
2018-Jan-18 12:58N 49°11' W 123°11'0 0.0
2018-Jan-18 12:29N 49°11' W 123°11'0 0.0
2018-Jan-18 11:59N 49°11' W 123°11'0 0.0
2018-Jan-18 11:30N 49°11' W 123°11'0 0.0
2018-Jan-18 10:59N 49°11' W 123°11'0 0.0
2018-Jan-18 10:30N 49°11' W 123°11'0 0.0
2018-Jan-18 10:00N 49°11' W 123°11'0 0.0
2018-Jan-18 09:28N 49°11' W 123°11'0 0.0
2018-Jan-18 09:00N 49°11' W 123°11'0 0.0
2018-Jan-18 08:29N 49°11' W 123°11'0 0.0
2018-Jan-18 07:58N 49°11' W 123°11'0 0.0
2018-Jan-18 07:30N 49°11' W 123°11'0 0.0
2018-Jan-18 07:00N 49°11' W 123°11'0 0.0
2018-Jan-18 06:30N 49°11' W 123°11'0 0.0
2018-Jan-18 05:59N 49°11' W 123°11'0 0.0
2018-Jan-18 05:30N 49°11' W 123°11'0 0.0
2018-Jan-18 04:59N 49°11' W 123°11'0 0.0
2018-Jan-18 04:30N 49°11' W 123°11'0 0.0
2018-Jan-18 03:58N 49°11' W 123°11'0 0.0
2018-Jan-18 03:30N 49°11' W 123°11'0 0.0
2018-Jan-18 02:59N 49°11' W 123°11'0 0.0
2018-Jan-18 02:30N 49°11' W 123°11'0 0.0
2018-Jan-18 02:00N 49°11' W 123°11'0 0.0
2018-Jan-18 01:30N 49°11' W 123°11'0 0.0
2018-Jan-18 01:00N 49°11' W 123°11'  
Track history (hours):
 
Tides and Currents Weather Stations Pressure Air Temp Water Temp Dewpoint Dewpoint Depression Visibility Wind Speed Wind Dir Waves Ship Positions

Siyay

Last reported at 2018-Jan-28 01:00 UTC. Time now 2018-Feb-18 20:22 UTC.
Position N 49°11' W 123°11'.
Warning: this ship's position is 21 days out of date.

Length 28 m; draft 0.1 m.

Type: SAR. MMSI: 316001749.

Date/timePositionNaut miles runAvg speedWind from/ knotsBaromVisibWave heightAir tempDewpointWater temp
2018-Jan-28 01:00N 49°11' W 123°11'0 0.0
2018-Jan-27 23:58N 49°11' W 123°11'0 0.0
2018-Jan-27 06:03N 49°11' W 123°11'0 0.2
2018-Jan-27 05:54N 49°11' W 123°11'0 0.1
2018-Jan-27 05:24N 49°11' W 123°11'0 0.0
2018-Jan-27 04:58N 49°11' W 123°11'0 0.0
2018-Jan-27 04:21N 49°11' W 123°11'0 0.0
2018-Jan-27 03:59N 49°11' W 123°11'0 0.0
2018-Jan-27 03:30N 49°11' W 123°11'0 0.0
2018-Jan-27 02:59N 49°11' W 123°11'2 0.3
2018-Jan-26 19:38N 49°12' W 123°15'211.5
2018-Jan-26 19:26N 49°11' W 123°11'2 4.6
2018-Jan-26 18:57N 49°12' W 123°08'2 4.0
2018-Jan-26 18:30N 49°12' W 123°05'1 2.5
2018-Jan-26 18:00N 49°12' W 123°07'510.4
2018-Jan-26 17:31N 49°12' W 123°15'3 0.2
2018-Jan-26 02:41N 49°11' W 123°11'0 0.2
2018-Jan-26 02:30N 49°11' W 123°11'0 0.0
2018-Jan-26 02:00N 49°11' W 123°11'816.6
2018-Jan-26 01:31N 49°13' W 123°23'1015.9
2018-Jan-26 00:51N 49°15' W 123°39'0 0.5
2018-Jan-26 00:24N 49°15' W 123°39'0 0.2
2018-Jan-25 23:45N 49°15' W 123°39'0 0.2
2018-Jan-25 23:00N 49°15' W 123°40'0 0.2
2018-Jan-25 22:29N 49°15' W 123°40'0 0.1
2018-Jan-25 21:46N 49°15' W 123°40'0 0.1
2018-Jan-25 21:28N 49°15' W 123°40'0 0.1
2018-Jan-25 20:59N 49°16' W 123°40'0 0.3
2018-Jan-25 20:29N 49°16' W 123°40'0 0.6
2018-Jan-25 20:00N 49°15' W 123°40'0 0.7
2018-Jan-25 19:28N 49°15' W 123°40'1123.0
2018-Jan-25 19:01N 49°13' W 123°24'917.3
2018-Jan-25 18:31N 49°11' W 123°11'611.3
2018-Jan-25 18:00N 49°12' W 123°20'1326.0
2018-Jan-25 17:30N 49°16' W 123°39'1631.6
2018-Jan-25 17:00N 49°11' W 123°15'2 5.0
2018-Jan-25 16:30N 49°11' W 123°11'0 0.0
2018-Jan-25 16:00N 49°11' W 123°11'0 0.0
2018-Jan-24 14:29N 49°11' W 123°11'0 0.1
2018-Jan-24 13:47N 49°11' W 123°11'0 0.0
2018-Jan-24 13:18N 49°11' W 123°11'0 0.0
2018-Jan-24 13:00N 49°11' W 123°11'0 0.0
2018-Jan-24 12:21N 49°11' W 123°11'0 0.0
2018-Jan-24 11:58N 49°11' W 123°11'0 0.0
2018-Jan-24 11:20N 49°11' W 123°11'0 0.0
2018-Jan-24 10:53N 49°11' W 123°11'0 0.0
2018-Jan-24 10:28N 49°11' W 123°11'0 0.0
2018-Jan-24 09:53N 49°11' W 123°11'0 0.0
2018-Jan-24 09:24N 49°11' W 123°11'0 0.0
2018-Jan-24 08:58N 49°11' W 123°11'0 0.0
2018-Jan-24 08:29N 49°11' W 123°11'0 0.0
2018-Jan-24 08:00N 49°11' W 123°11'0 0.0
2018-Jan-24 05:52N 49°11' W 123°11'0 0.0
2018-Jan-24 05:21N 49°11' W 123°11'0 0.0
2018-Jan-24 04:45N 49°11' W 123°11'0 0.0
2018-Jan-24 04:22N 49°11' W 123°11'0 0.0
2018-Jan-24 03:58N 49°11' W 123°11'0 0.0
2018-Jan-24 03:27N 49°11' W 123°11'0 0.0
2018-Jan-24 03:00N 49°11' W 123°11'0 0.0
2018-Jan-24 02:28N 49°11' W 123°11'0 0.0
2018-Jan-24 01:54N 49°11' W 123°11'0 0.0
2018-Jan-24 01:29N 49°11' W 123°11'0 0.0
2018-Jan-24 00:50N 49°11' W 123°11'0 0.0
2018-Jan-24 00:29N 49°11' W 123°11'0 0.0
2018-Jan-23 23:34N 49°11' W 123°11'0 0.1
2018-Jan-23 23:28N 49°11' W 123°11'0 0.3
2018-Jan-23 22:50N 49°11' W 123°11'824.2
2018-Jan-23 22:31N 49°17' W 123°18'1120.9
2018-Jan-23 22:00N 49°28' W 123°23'1 1.0
2018-Jan-23 21:23N 49°28' W 123°23'0 0.0
2018-Jan-23 20:55N 49°28' W 123°23'0 0.0
2018-Jan-23 20:29N 49°28' W 123°23'0 0.0
2018-Jan-23 19:56N 49°28' W 123°23'0 0.0
2018-Jan-23 19:29N 49°28' W 123°23'613.4
2018-Jan-23 19:00N 49°23' W 123°18'1325.3
2018-Jan-23 18:31N 49°11' W 123°11'0 0.5
2018-Jan-23 18:00N 49°11' W 123°11'0 0.0
2018-Jan-23 17:30N 49°11' W 123°11'0 0.0
2018-Jan-23 17:00N 49°11' W 123°11'0 0.0
2018-Jan-23 16:28N 49°11' W 123°11'0 0.0
2018-Jan-23 15:57N 49°11' W 123°11'0 0.0
2018-Jan-23 15:29N 49°11' W 123°11'0 0.0
2018-Jan-23 15:00N 49°11' W 123°11'0 0.0
2018-Jan-23 14:29N 49°11' W 123°11'0 0.0
2018-Jan-23 14:00N 49°11' W 123°11'0 0.0
2018-Jan-23 13:30N 49°11' W 123°11'0 0.0
2018-Jan-23 13:00N 49°11' W 123°11'0 0.0
2018-Jan-23 12:25N 49°11' W 123°11'0 0.0
2018-Jan-23 11:56N 49°11' W 123°11'0 0.0
2018-Jan-23 11:30N 49°11' W 123°11'0 0.0
2018-Jan-23 10:58N 49°11' W 123°11'0 0.0
2018-Jan-23 10:28N 49°11' W 123°11'0 0.0
2018-Jan-23 10:00N 49°11' W 123°11'0 0.0
2018-Jan-23 09:30N 49°11' W 123°11'0 0.0
2018-Jan-23 09:00N 49°11' W 123°11'0 0.0
2018-Jan-23 08:30N 49°11' W 123°11'0 0.0
2018-Jan-23 08:00N 49°11' W 123°11'0 0.0
2018-Jan-23 07:30N 49°11' W 123°11'0 0.0
2018-Jan-23 07:00N 49°11' W 123°11'0 0.0
2018-Jan-23 06:30N 49°11' W 123°11'0 0.0
2018-Jan-23 05:59N 49°11' W 123°11'0 0.0
2018-Jan-23 05:29N 49°11' W 123°11'0 0.0
2018-Jan-23 05:00N 49°11' W 123°11'0 0.0
2018-Jan-23 04:28N 49°11' W 123°11'0 0.0
2018-Jan-23 04:00N 49°11' W 123°11'0 0.0
2018-Jan-23 03:30N 49°11' W 123°11'0 0.0
2018-Jan-23 02:59N 49°11' W 123°11'0 0.0
2018-Jan-23 02:30N 49°11' W 123°11'0 0.0
2018-Jan-23 01:58N 49°11' W 123°11'715.2
2018-Jan-23 01:29N 49°06' W 123°19'1121.4
2018-Jan-23 01:00N 49°12' W 123°32'6 7.3
2018-Jan-23 00:09N 49°15' W 123°40'0 0.3
2018-Jan-23 00:00N 49°15' W 123°40'0 0.2
2018-Jan-22 23:29N 49°15' W 123°40'0 0.2
2018-Jan-22 22:57N 49°15' W 123°40'0 0.2
2018-Jan-22 22:31N 49°15' W 123°40'0 0.1
2018-Jan-22 21:50N 49°15' W 123°40'0 0.1
2018-Jan-22 21:30N 49°15' W 123°40'0 0.1
2018-Jan-22 19:14N 49°15' W 123°40'0 0.2
2018-Jan-22 18:58N 49°15' W 123°40'5 9.5
2018-Jan-22 18:28N 49°12' W 123°34'1224.7
2018-Jan-22 17:59N 49°06' W 123°19'1 3.1
2018-Jan-22 17:30N 49°07' W 123°18'6 9.5
2018-Jan-22 16:52N 49°11' W 123°11'0 0.0
2018-Jan-22 16:30N 49°11' W 123°11'0 0.0
2018-Jan-22 14:06N 49°11' W 123°11'0 0.2
2018-Jan-22 13:53N 49°11' W 123°11'0 0.0
2018-Jan-22 13:12N 49°11' W 123°11'0 0.0
2018-Jan-22 12:46N 49°11' W 123°11'0 0.1
2018-Jan-22 12:25N 49°11' W 123°11'0 0.0
2018-Jan-22 11:56N 49°11' W 123°11'0 0.1
2018-Jan-22 11:26N 49°11' W 123°11'0 0.1
2018-Jan-22 10:58N 49°11' W 123°11'0 0.0
2018-Jan-22 10:30N 49°11' W 123°11'0 0.0
2018-Jan-22 09:43N 49°11' W 123°11'0 0.0
2018-Jan-22 09:30N 49°11' W 123°11'0 0.0
2018-Jan-22 09:00N 49°11' W 123°11'0 0.1
2018-Jan-22 08:26N 49°11' W 123°11'0 0.1
2018-Jan-22 07:55N 49°11' W 123°11'0 0.0
2018-Jan-22 07:25N 49°11' W 123°11'0 0.0
2018-Jan-22 06:59N 49°11' W 123°11'0 0.0
2018-Jan-22 06:09N 49°11' W 123°11'0 0.2
2018-Jan-22 05:53N 49°11' W 123°11'0 0.1
2018-Jan-22 05:27N 49°11' W 123°11'0 0.0
2018-Jan-22 05:00N 49°11' W 123°11'0 0.0
2018-Jan-22 04:29N 49°11' W 123°11'0 0.0
2018-Jan-22 03:56N 49°11' W 123°11'0 0.0
2018-Jan-22 03:04N 49°11' W 123°11'0 0.1
2018-Jan-22 02:41N 49°11' W 123°11'0 0.1
2018-Jan-22 02:18N 49°11' W 123°11'0 0.0
2018-Jan-22 01:42N 49°11' W 123°11'0 0.2
2018-Jan-22 01:30N 49°11' W 123°11'0 0.0
2018-Jan-22 00:57N 49°11' W 123°11'0 0.0
2018-Jan-22 00:17N 49°11' W 123°11'0 0.0
2018-Jan-21 23:58N 49°11' W 123°11'0 0.0
2018-Jan-21 23:23N 49°11' W 123°11'0 0.0
2018-Jan-21 22:19N 49°11' W 123°11'0 0.1
2018-Jan-21 22:00N 49°11' W 123°11'0 0.1
2018-Jan-21 21:27N 49°11' W 123°11'0 0.0
2018-Jan-21 20:26N 49°11' W 123°11'818.6
2018-Jan-21 20:00N 49°18' W 123°15'612.0
2018-Jan-21 19:31N 49°17' W 123°06'815.0
2018-Jan-21 19:00N 49°15' W 123°17'610.5
2018-Jan-21 18:25N 49°11' W 123°11'0 0.0
2018-Jan-21 17:57N 49°11' W 123°11'0 0.0
2018-Jan-21 17:28N 49°11' W 123°11'0 0.1
2018-Jan-21 16:59N 49°11' W 123°11'0 0.0
2018-Jan-21 16:30N 49°11' W 123°11'0 0.0
2018-Jan-21 16:00N 49°11' W 123°11'0 0.1
2018-Jan-21 15:30N 49°11' W 123°11'0 0.0
2018-Jan-21 15:00N 49°11' W 123°11'0 0.0
2018-Jan-21 14:30N 49°11' W 123°11'0 0.0
2018-Jan-21 14:00N 49°11' W 123°11'0 0.0
2018-Jan-21 13:30N 49°11' W 123°11'0 0.0
2018-Jan-21 13:00N 49°11' W 123°11'0 0.0
2018-Jan-21 12:30N 49°11' W 123°11'0 0.0
2018-Jan-21 12:00N 49°11' W 123°11'0 0.1
2018-Jan-21 11:30N 49°11' W 123°11'0 0.0
2018-Jan-21 10:59N 49°11' W 123°11'0 0.1
2018-Jan-21 10:30N 49°11' W 123°11'0 0.0
2018-Jan-21 10:00N 49°11' W 123°11'0 0.1
2018-Jan-21 09:30N 49°11' W 123°11'0 0.1
2018-Jan-21 08:59N 49°11' W 123°11'0 0.1
2018-Jan-21 08:30N 49°11' W 123°11'0 0.0
2018-Jan-21 08:00N 49°11' W 123°11'0 0.1
2018-Jan-21 07:30N 49°11' W 123°11'0 0.0
2018-Jan-21 07:00N 49°11' W 123°11'0 0.1
2018-Jan-21 06:30N 49°11' W 123°11'0 0.1
2018-Jan-21 06:00N 49°11' W 123°11'0 0.0
2018-Jan-21 05:28N 49°11' W 123°11'0 0.0
2018-Jan-21 05:00N 49°11' W 123°11'0 0.0
2018-Jan-21 04:30N 49°11' W 123°11'0 0.0
2018-Jan-21 03:59N 49°11' W 123°11'0 0.0
2018-Jan-21 03:30N 49°11' W 123°11'0 0.0
2018-Jan-21 03:00N 49°11' W 123°11'0 0.0
2018-Jan-21 02:30N 49°11' W 123°11'0 0.0
2018-Jan-21 02:00N 49°11' W 123°11'0 0.1
2018-Jan-21 01:30N 49°11' W 123°11'0 0.0
2018-Jan-21 01:00N 49°11' W 123°11'0 0.1
2018-Jan-21 00:30N 49°11' W 123°11'0 0.0
2018-Jan-21 00:00N 49°11' W 123°11'0 0.0
2018-Jan-20 23:30N 49°11' W 123°11'0 0.1
2018-Jan-20 23:00N 49°11' W 123°11'0 0.1
2018-Jan-20 22:30N 49°11' W 123°11'0 0.0
2018-Jan-20 22:00N 49°11' W 123°11'0 0.0
2018-Jan-20 21:30N 49°11' W 123°11'0 0.0
2018-Jan-20 21:00N 49°11' W 123°11'0 0.1
2018-Jan-20 20:30N 49°11' W 123°11'0 0.1
2018-Jan-20 20:00N 49°11' W 123°11'0 0.1
2018-Jan-20 19:30N 49°11' W 123°11'0 0.1
2018-Jan-20 19:00N 49°11' W 123°11'0 0.0
2018-Jan-20 18:30N 49°11' W 123°11'0 0.1
2018-Jan-20 17:59N 49°11' W 123°11'1 2.1
2018-Jan-20 17:30N 49°11' W 123°13'1 2.1
2018-Jan-20 17:00N 49°11' W 123°11'0 0.0
2018-Jan-20 14:42N 49°11' W 123°11'0 0.2
2018-Jan-20 14:30N 49°11' W 123°11'0 0.2
2018-Jan-20 14:00N 49°11' W 123°11'0 0.0
2018-Jan-20 13:30N 49°11' W 123°11'0 0.0
2018-Jan-20 13:00N 49°11' W 123°11'0 0.0
2018-Jan-20 12:30N 49°11' W 123°11'0 0.0
2018-Jan-20 12:00N 49°11' W 123°11'0 0.0
2018-Jan-20 11:30N 49°11' W 123°11'0 0.0
2018-Jan-20 10:59N 49°11' W 123°11'0 0.0
2018-Jan-20 10:28N 49°11' W 123°11'0 0.0
2018-Jan-20 09:59N 49°11' W 123°11'0 0.0
2018-Jan-20 09:25N 49°11' W 123°11'0 0.0
2018-Jan-20 09:00N 49°11' W 123°11'0 0.0
2018-Jan-20 08:30N 49°11' W 123°11'0 0.0
2018-Jan-20 08:00N 49°11' W 123°11'0 0.0
2018-Jan-20 07:30N 49°11' W 123°11'0 0.0
2018-Jan-20 07:00N 49°11' W 123°11'0 0.0
2018-Jan-20 06:29N 49°11' W 123°11'0 0.0
2018-Jan-20 06:00N 49°11' W 123°11'0 0.0
2018-Jan-20 05:30N 49°11' W 123°11'0 0.0
2018-Jan-20 05:00N 49°11' W 123°11'0 0.0
2018-Jan-20 04:27N 49°11' W 123°11'0 0.0
2018-Jan-20 03:57N 49°11' W 123°11'0 0.0
2018-Jan-20 03:30N 49°11' W 123°11'0 0.0
2018-Jan-20 03:00N 49°11' W 123°11'0 0.0
2018-Jan-20 02:29N 49°11' W 123°11'0 0.0
2018-Jan-20 01:59N 49°11' W 123°11'0 0.0
2018-Jan-20 01:30N 49°11' W 123°11'0 0.0
2018-Jan-20 01:00N 49°11' W 123°11'0 0.0
2018-Jan-20 00:31N 49°11' W 123°11'0 0.0
2018-Jan-20 00:01N 49°11' W 123°11'612.1
2018-Jan-19 23:29N 49°09' W 123°02'714.8
2018-Jan-19 23:00N 49°08' W 123°12'3 6.7
2018-Jan-19 22:29N 49°11' W 123°11'0 0.0
2018-Jan-19 21:58N 49°11' W 123°11'0 0.1
2018-Jan-19 21:30N 49°11' W 123°11'0 0.0
2018-Jan-19 20:58N 49°11' W 123°11'0 0.1
2018-Jan-19 20:29N 49°11' W 123°11'0 0.1
2018-Jan-19 19:58N 49°11' W 123°11'0 0.1
2018-Jan-19 19:29N 49°11' W 123°11'0 0.0
2018-Jan-19 18:56N 49°11' W 123°11'0 0.0
2018-Jan-19 18:30N 49°11' W 123°11'0 0.0
2018-Jan-19 17:56N 49°11' W 123°11'1 1.3
2018-Jan-19 17:28N 49°11' W 123°12'0 1.0
2018-Jan-19 17:00N 49°11' W 123°11'0 0.3
2018-Jan-19 16:29N 49°11' W 123°11'0 0.0
2018-Jan-19 15:57N 49°11' W 123°11'0 0.0
2018-Jan-19 15:30N 49°11' W 123°11'0 0.0
2018-Jan-19 14:56N 49°11' W 123°11'0 0.0
2018-Jan-19 14:29N 49°11' W 123°11'0 0.0
2018-Jan-19 13:59N 49°11' W 123°11'0 0.0
2018-Jan-19 13:28N 49°11' W 123°11'0 0.0
2018-Jan-19 12:56N 49°11' W 123°11'0 0.0
2018-Jan-19 12:30N 49°11' W 123°11'0 0.0
2018-Jan-19 11:59N 49°11' W 123°11'0 0.0
2018-Jan-19 11:25N 49°11' W 123°11'0 0.0
2018-Jan-19 10:56N 49°11' W 123°11'0 0.0
2018-Jan-19 10:29N 49°11' W 123°11'0 0.0
2018-Jan-19 09:56N 49°11' W 123°11'0 0.0
2018-Jan-19 09:27N 49°11' W 123°11'0 0.0
2018-Jan-19 08:59N 49°11' W 123°11'0 0.0
2018-Jan-19 08:11N 49°11' W 123°11'0 0.0
2018-Jan-19 07:36N 49°11' W 123°11'0 0.0
2018-Jan-19 07:27N 49°11' W 123°11'0 0.0
2018-Jan-19 06:58N 49°11' W 123°11'0 0.0
2018-Jan-19 06:30N 49°11' W 123°11'0 0.0
2018-Jan-19 05:12N 49°11' W 123°11'0 0.0
2018-Jan-19 04:53N 49°11' W 123°11'0 0.0
2018-Jan-19 04:26N 49°11' W 123°11'0 0.0
2018-Jan-19 03:57N 49°11' W 123°11'0 0.0
2018-Jan-19 03:30N 49°11' W 123°11'0 0.0
2018-Jan-19 02:58N 49°11' W 123°11'511.2
2018-Jan-19 02:30N 49°14' W 123°17'714.4
2018-Jan-19 02:00N 49°17' W 123°07'0 0.0
2018-Jan-19 01:30N 49°17' W 123°07'0 0.3
2018-Jan-19 01:00N 49°18' W 123°07'713.6
2018-Jan-19 00:29N 49°11' W 123°11'0 0.0
2018-Jan-18 23:59N 49°11' W 123°11'0 0.0
2018-Jan-18 23:30N 49°11' W 123°11'815.6
2018-Jan-18 23:00N 49°18' W 123°16'1121.0
2018-Jan-18 22:29N 49°28' W 123°23'0 0.1
2018-Jan-18 20:27N 49°28' W 123°23'0 0.0
2018-Jan-18 19:56N 49°28' W 123°23'0 0.0
2018-Jan-18 19:29N 49°28' W 123°23'0 0.1
2018-Jan-18 18:49N 49°28' W 123°23'620.0
2018-Jan-18 18:31N 49°23' W 123°18'1326.2
2018-Jan-18 18:00N 49°11' W 123°11'0 0.0
2018-Jan-18 17:30N 49°11' W 123°11'0 0.0
2018-Jan-18 17:00N 49°11' W 123°11'0 0.0
2018-Jan-18 16:29N 49°11' W 123°11'0 0.0
2018-Jan-18 16:00N 49°11' W 123°11'0 0.0
2018-Jan-18 15:30N 49°11' W 123°11'0 0.0
2018-Jan-18 14:58N 49°11' W 123°11'0 0.0
2018-Jan-18 14:30N 49°11' W 123°11'0 0.0
2018-Jan-18 14:00N 49°11' W 123°11'0 0.0
2018-Jan-18 13:30N 49°11' W 123°11'0 0.0
2018-Jan-18 12:58N 49°11' W 123°11'0 0.0
2018-Jan-18 12:29N 49°11' W 123°11'0 0.0
2018-Jan-18 11:59N 49°11' W 123°11'0 0.0
2018-Jan-18 11:30N 49°11' W 123°11'0 0.0
2018-Jan-18 10:59N 49°11' W 123°11'0 0.0
2018-Jan-18 10:30N 49°11' W 123°11'0 0.0
2018-Jan-18 10:00N 49°11' W 123°11'0 0.0
2018-Jan-18 09:28N 49°11' W 123°11'0 0.0
2018-Jan-18 09:00N 49°11' W 123°11'0 0.0
2018-Jan-18 08:29N 49°11' W 123°11'0 0.0
2018-Jan-18 07:58N 49°11' W 123°11'0 0.0
2018-Jan-18 07:30N 49°11' W 123°11'0 0.0
2018-Jan-18 07:00N 49°11' W 123°11'0 0.0
2018-Jan-18 06:30N 49°11' W 123°11'0 0.0
2018-Jan-18 05:59N 49°11' W 123°11'0 0.0
2018-Jan-18 05:30N 49°11' W 123°11'0 0.0
2018-Jan-18 04:59N 49°11' W 123°11'0 0.0
2018-Jan-18 04:30N 49°11' W 123°11'0 0.0
2018-Jan-18 03:58N 49°11' W 123°11'0 0.0
2018-Jan-18 03:30N 49°11' W 123°11'0 0.0
2018-Jan-18 02:59N 49°11' W 123°11'0 0.0
2018-Jan-18 02:30N 49°11' W 123°11'0 0.0
2018-Jan-18 02:00N 49°11' W 123°11'0 0.0
2018-Jan-18 01:30N 49°11' W 123°11'0 0.0
2018-Jan-18 01:00N 49°11' W 123°11'  

Dump ship's entire track history